createdAt,value
2022-11-14T00:00:40.991Z,4.82
2022-11-14T00:03:08.756Z,4.40
2022-11-14T00:05:44.315Z,5.05
2022-11-14T00:10:49.243Z,4.70
2022-11-14T00:13:17.328Z,4.82
2022-11-14T00:15:44.871Z,4.47
2022-11-14T00:18:11.571Z,4.45
2022-11-14T00:20:37.989Z,4.47
2022-11-14T00:23:04.448Z,4.90
2022-11-14T00:25:32.244Z,4.13
2022-11-14T00:27:59.479Z,4.95
2022-11-14T00:30:27.382Z,4.57
2022-11-14T00:32:53.791Z,4.95
2022-11-14T00:35:20.296Z,5.07
2022-11-14T00:37:46.725Z,5.20
2022-11-14T00:40:14.633Z,4.78
2022-11-14T00:42:41.270Z,4.63
2022-11-14T00:45:07.957Z,4.97
2022-11-14T00:47:34.432Z,4.95
2022-11-14T00:50:00.862Z,4.95
2022-11-14T00:52:27.271Z,4.45
2022-11-14T00:54:53.735Z,4.85
2022-11-14T00:57:20.281Z,4.43
2022-11-14T00:59:46.716Z,4.65
2022-11-14T01:02:13.116Z,4.18
2022-11-14T01:04:39.628Z,4.57
2022-11-14T01:07:06.114Z,4.80
2022-11-14T01:09:32.744Z,4.38
2022-11-14T01:11:59.201Z,5.18
2022-11-14T01:14:25.667Z,4.57
2022-11-14T01:16:52.095Z,4.60
2022-11-14T01:19:18.548Z,4.03
2022-11-14T01:21:44.991Z,4.57
2022-11-14T01:24:11.438Z,4.32
2022-11-14T01:26:37.951Z,5.70
2022-11-14T01:29:04.401Z,4.22
2022-11-14T01:31:30.863Z,4.68
2022-11-14T01:33:57.314Z,4.47
2022-11-14T01:36:23.877Z,4.78
2022-11-14T01:38:54.281Z,4.32
2022-11-14T01:41:21.784Z,4.80
2022-11-14T01:43:49.111Z,4.45
2022-11-14T01:46:28.353Z,4.45
2022-11-14T01:49:11.517Z,4.95
2022-11-14T01:51:48.804Z,4.72
2022-11-14T01:54:28.176Z,4.40
2022-11-14T01:57:03.353Z,4.32
2022-11-14T01:59:38.261Z,4.15
2022-11-14T02:02:13.561Z,3.83
2022-11-14T02:04:44.146Z,3.90
2022-11-14T02:07:12.263Z,4.88
2022-11-14T02:09:41.971Z,4.65
2022-11-14T02:12:12.463Z,4.47
2022-11-14T02:14:41.200Z,4.95
2022-11-14T02:17:28.334Z,4.57
2022-11-14T02:20:11.674Z,4.13
2022-11-14T02:22:40.460Z,3.90
2022-11-14T02:25:08.608Z,4.43
2022-11-14T02:27:36.321Z,3.92
2022-11-14T02:30:08.534Z,4.50
2022-11-14T02:32:56.906Z,4.30
2022-11-14T02:35:21.476Z,4.40
2022-11-14T02:37:47.935Z,3.65
2022-11-14T02:40:14.465Z,4.13
2022-11-14T02:42:41.199Z,4.25
2022-11-14T02:45:08.587Z,4.13
2022-11-14T02:47:35.014Z,4.28
2022-11-14T02:50:01.530Z,4.70
2022-11-14T02:52:27.989Z,3.55
2022-11-14T02:54:54.854Z,3.90
2022-11-14T02:57:21.322Z,4.03
2022-11-14T02:59:47.766Z,4.05
2022-11-14T03:02:14.278Z,4.00
2022-11-14T03:04:40.751Z,4.10
2022-11-14T03:07:07.224Z,4.38
2022-11-14T03:09:33.734Z,4.25
2022-11-14T03:12:00.166Z,4.43
2022-11-14T03:14:26.682Z,3.97
2022-11-14T03:16:55.629Z,4.07
2022-11-14T03:19:22.065Z,3.97
2022-11-14T03:21:48.561Z,3.72
2022-11-14T03:24:15.012Z,4.18
2022-11-14T03:26:41.568Z,4.18
2022-11-14T03:29:08.207Z,4.75
2022-11-14T03:31:34.899Z,4.47
2022-11-14T03:34:01.353Z,3.70
2022-11-14T03:36:27.877Z,4.18
2022-11-14T03:38:54.279Z,4.13
2022-11-14T03:41:20.860Z,3.50
2022-11-14T03:43:47.304Z,3.75
2022-11-14T03:46:13.990Z,3.75
2022-11-14T03:48:40.432Z,3.60
2022-11-14T03:51:06.956Z,4.10
2022-11-14T03:53:33.460Z,4.18
2022-11-14T03:55:59.991Z,4.00
2022-11-14T03:58:26.550Z,4.10
2022-11-14T04:00:55.817Z,3.85
2022-11-14T04:03:23.820Z,3.80
2022-11-14T04:05:50.571Z,3.83
2022-11-14T04:08:17.535Z,4.00
2022-11-14T04:10:47.276Z,3.75
2022-11-14T04:13:13.668Z,4.03
2022-11-14T04:15:40.507Z,3.53
2022-11-14T04:18:07.006Z,4.00
2022-11-14T04:20:33.779Z,3.72
2022-11-14T04:23:00.208Z,3.30
2022-11-14T04:25:26.642Z,4.10
2022-11-14T04:27:53.101Z,3.88
2022-11-14T04:30:19.723Z,3.88
2022-11-14T04:32:48.379Z,3.63
2022-11-14T04:35:15.303Z,4.07
2022-11-14T04:37:41.746Z,3.47
2022-11-14T04:40:08.848Z,3.72
2022-11-14T04:42:35.291Z,3.80
2022-11-14T04:45:01.792Z,3.55
2022-11-14T04:47:28.288Z,2.92
2022-11-14T04:49:54.871Z,3.80
2022-11-14T04:52:21.317Z,4.07
2022-11-14T04:54:47.737Z,4.13
2022-11-14T04:57:14.198Z,4.07
2022-11-14T04:59:40.656Z,3.88
2022-11-14T05:02:07.127Z,3.80
2022-11-14T05:04:33.546Z,3.33
2022-11-14T05:07:00.173Z,3.88
2022-11-14T05:09:26.621Z,3.58
2022-11-14T05:11:53.061Z,3.80
2022-11-14T05:14:19.495Z,3.65
2022-11-14T05:16:45.936Z,3.95
2022-11-14T05:19:12.513Z,4.00
2022-11-14T05:21:38.935Z,3.20
2022-11-14T05:24:05.619Z,3.75
2022-11-14T05:26:32.044Z,3.28
2022-11-14T05:28:58.579Z,3.42
2022-11-14T05:31:25.041Z,3.20
2022-11-14T05:33:52.431Z,3.40
2022-11-14T05:36:19.356Z,3.75
2022-11-14T05:38:45.822Z,3.10
2022-11-14T05:41:18.289Z,3.58
2022-11-14T05:43:44.760Z,3.50
2022-11-14T05:46:14.375Z,3.20
2022-11-14T05:48:41.582Z,3.35
2022-11-14T05:51:11.872Z,3.13
2022-11-14T05:53:38.743Z,3.38
2022-11-14T05:56:09.457Z,3.17
2022-11-14T05:58:36.451Z,3.35
2022-11-14T06:01:08.882Z,3.45
2022-11-14T06:03:38.480Z,2.90
2022-11-14T06:06:07.444Z,3.25
2022-11-14T06:08:34.601Z,3.00
2022-11-14T06:11:06.914Z,3.13
2022-11-14T06:13:34.180Z,3.08
2022-11-14T06:16:07.812Z,3.03
2022-11-14T06:18:35.083Z,3.40
2022-11-14T06:21:02.668Z,3.03
2022-11-14T06:23:29.263Z,3.25
2022-11-14T06:26:04.129Z,3.17
2022-11-14T06:28:31.360Z,4.05
2022-11-14T06:31:03.873Z,3.90
2022-11-14T06:33:34.725Z,3.13
2022-11-14T06:36:03.679Z,3.47
2022-11-14T06:38:35.460Z,3.08
2022-11-14T06:41:03.530Z,3.70
2022-11-14T06:43:32.667Z,3.40
2022-11-14T06:45:59.136Z,3.42
2022-11-14T06:48:25.562Z,3.53
2022-11-14T06:50:57.301Z,3.33
2022-11-14T06:53:24.790Z,3.78
2022-11-14T06:55:58.467Z,4.57
2022-11-14T06:58:36.456Z,3.45
2022-11-14T07:01:07.047Z,4.50
2022-11-14T07:03:34.278Z,4.10
2022-11-14T07:06:01.715Z,4.03
2022-11-14T07:08:29.056Z,4.63
2022-11-14T07:11:10.902Z,3.85
2022-11-14T07:16:05.215Z,3.50
2022-11-14T07:18:33.475Z,4.35
2022-11-14T07:21:01.523Z,4.22
2022-11-14T07:23:29.030Z,4.03
2022-11-14T07:25:55.589Z,3.72
2022-11-14T07:28:22.060Z,4.10
2022-11-14T07:30:48.744Z,3.67
2022-11-14T07:33:15.228Z,4.20
2022-11-14T07:35:41.776Z,4.22
2022-11-14T07:38:08.280Z,4.28
2022-11-14T07:40:34.800Z,4.45
2022-11-14T07:43:02.032Z,4.40
2022-11-14T07:45:31.513Z,3.97
2022-11-14T07:50:27.335Z,4.32
2022-11-14T07:52:55.527Z,4.22
2022-11-14T07:55:22.326Z,3.97
2022-11-14T07:57:53.139Z,4.13
2022-11-14T08:00:19.641Z,4.70
2022-11-14T08:02:46.889Z,5.28
2022-11-14T08:05:13.407Z,4.70
2022-11-14T08:07:39.944Z,2.42
2022-11-14T08:10:07.155Z,5.45
2022-11-14T08:12:33.612Z,5.10
2022-11-14T08:15:00.113Z,5.97
2022-11-14T08:17:26.620Z,5.60
2022-11-14T08:19:53.099Z,6.22
2022-11-14T08:22:19.605Z,3.78
2022-11-14T08:24:46.056Z,6.65
2022-11-14T08:27:14.585Z,6.95
2022-11-14T08:29:41.061Z,3.90
2022-11-14T08:32:07.553Z,6.68
2022-11-14T08:34:34.029Z,5.88
2022-11-14T08:37:01.602Z,6.60
2022-11-14T08:39:28.215Z,7.15
2022-11-14T08:41:55.548Z,7.30
2022-11-14T08:44:22.118Z,7.03
2022-11-14T08:46:50.082Z,7.22
2022-11-14T08:49:16.612Z,5.70
2022-11-14T08:51:43.201Z,5.07
2022-11-14T08:54:09.761Z,5.80
2022-11-14T08:56:36.225Z,6.93
2022-11-14T08:59:04.142Z,7.00
2022-11-14T09:01:32.699Z,7.05
2022-11-14T09:04:00.457Z,7.68
2022-11-14T09:06:27.188Z,7.93
2022-11-14T09:08:53.971Z,8.07
2022-11-14T09:11:20.834Z,8.18
2022-11-14T09:13:47.774Z,8.32
2022-11-14T09:16:14.357Z,5.93
2022-11-14T09:18:40.914Z,8.13
2022-11-14T09:21:08.673Z,8.45
2022-11-14T09:23:35.751Z,8.20
2022-11-14T09:26:09.951Z,8.00
2022-11-14T09:28:36.820Z,6.90
2022-11-14T09:31:12.515Z,8.23
2022-11-14T09:33:40.689Z,5.90
2022-11-14T09:36:10.711Z,8.18
2022-11-14T09:38:38.867Z,7.40
2022-11-14T09:41:08.620Z,6.90
2022-11-14T09:43:41.116Z,8.25
2022-11-14T09:46:47.270Z,7.88
2022-11-14T09:49:36.009Z,7.63
2022-11-14T09:52:17.660Z,7.68
2022-11-14T09:57:18.624Z,8.25
2022-11-14T09:59:45.384Z,8.13
2022-11-14T10:02:32.786Z,7.65
2022-11-14T10:05:17.556Z,8.35
2022-11-14T10:08:15.359Z,8.23
2022-11-14T10:11:06.229Z,8.57
2022-11-14T10:14:00.730Z,8.25
2022-11-14T10:16:37.042Z,5.65
2022-11-14T10:19:17.050Z,7.18
2022-11-14T10:21:58.794Z,7.38
2022-11-14T10:24:57.613Z,6.20
2022-11-14T10:27:43.053Z,5.45
2022-11-14T10:30:14.608Z,5.68
2022-11-14T10:32:52.360Z,6.43
2022-11-14T10:35:18.966Z,5.72
2022-11-14T10:37:45.408Z,4.15
2022-11-14T10:40:24.993Z,4.88
2022-11-14T10:42:58.034Z,4.68
2022-11-14T10:45:47.889Z,4.88
2022-11-14T10:48:49.743Z,4.25
2022-11-14T10:51:28.145Z,4.65
2022-11-14T10:54:13.753Z,4.60
2022-11-14T10:56:51.929Z,4.88
2022-11-14T10:59:19.140Z,4.35
2022-11-14T11:01:54.685Z,4.18
2022-11-14T11:04:30.157Z,2.75
2022-11-14T11:07:06.793Z,2.28
2022-11-14T11:09:59.668Z,3.92
2022-11-14T11:12:44.560Z,4.30
2022-11-14T11:15:20.399Z,4.75
2022-11-14T11:18:02.440Z,4.78
2022-11-14T11:20:39.307Z,4.80
2022-11-14T11:23:11.752Z,4.55
2022-11-14T11:25:40.144Z,5.10
2022-11-14T11:28:12.522Z,4.97
2022-11-14T11:30:39.864Z,4.88
2022-11-14T11:33:16.398Z,4.70
2022-11-14T11:35:45.965Z,5.30
2022-11-14T11:38:15.652Z,4.78
2022-11-14T11:40:46.031Z,5.10
2022-11-14T11:43:38.312Z,5.03
2022-11-14T11:46:15.628Z,5.43
2022-11-14T11:48:42.448Z,5.85
2022-11-14T11:51:27.695Z,5.50
2022-11-14T11:54:04.892Z,4.88
2022-11-14T11:56:32.595Z,5.65
2022-11-14T11:59:20.703Z,6.20
2022-11-14T12:01:47.237Z,4.93
2022-11-14T12:04:13.880Z,4.95
2022-11-14T12:07:06.681Z,5.88
2022-11-14T12:10:08.811Z,6.05
2022-11-14T12:12:54.823Z,5.70
2022-11-14T12:15:31.820Z,7.05
2022-11-14T12:18:10.472Z,7.13
2022-11-14T12:20:39.619Z,6.60
2022-11-14T12:23:40.182Z,5.25
2022-11-14T12:26:44.718Z,6.47
2022-11-14T12:29:26.013Z,6.07
2022-11-14T12:34:30.479Z,7.95
2022-11-14T12:36:57.835Z,6.30
2022-11-14T12:39:27.769Z,6.55
2022-11-14T12:42:10.465Z,6.07
2022-11-14T12:44:39.633Z,5.95
2022-11-14T12:47:06.416Z,5.75
2022-11-14T12:49:49.597Z,6.35
2022-11-14T12:52:41.191Z,5.93
2022-11-14T12:55:30.706Z,5.75
2022-11-14T12:58:23.934Z,5.10
2022-11-14T13:00:50.325Z,6.07
2022-11-14T13:03:23.045Z,5.47
2022-11-14T13:05:54.445Z,6.10
2022-11-14T13:08:39.206Z,5.45
2022-11-14T13:12:02.857Z,6.13
2022-11-14T13:14:50.064Z,6.18
2022-11-14T13:17:35.251Z,5.30
2022-11-14T13:20:41.834Z,5.28
2022-11-14T13:23:26.825Z,6.40
2022-11-14T13:26:13.802Z,6.55
2022-11-14T13:28:45.940Z,5.78
2022-11-14T13:31:15.447Z,6.38
2022-11-14T13:33:52.242Z,5.47
2022-11-14T13:36:29.796Z,5.13
2022-11-14T13:39:30.088Z,5.60
2022-11-14T13:42:20.221Z,4.93
2022-11-14T13:45:25.190Z,5.10
2022-11-14T13:48:28.779Z,5.20
2022-11-14T13:51:15.294Z,5.40
2022-11-14T13:53:46.252Z,4.47
2022-11-14T13:56:24.958Z,5.05
2022-11-14T13:59:29.289Z,5.65
2022-11-14T14:02:10.896Z,6.30
2022-11-14T14:04:43.178Z,5.47
2022-11-14T14:07:38.671Z,6.40
2022-11-14T14:10:43.324Z,5.43
2022-11-14T14:13:34.352Z,6.63
2022-11-14T14:16:09.760Z,5.68
2022-11-14T14:18:53.523Z,6.50
2022-11-14T14:21:32.592Z,6.50
2022-11-14T14:24:05.677Z,5.85
2022-11-14T14:27:19.899Z,6.15
2022-11-14T14:30:01.611Z,6.22
2022-11-14T14:32:28.718Z,6.38
2022-11-14T14:34:58.446Z,6.40
2022-11-14T14:37:27.357Z,6.43
2022-11-14T14:40:06.839Z,5.65
2022-11-14T14:42:41.767Z,6.13
2022-11-14T14:45:16.394Z,6.10
2022-11-14T14:47:47.219Z,6.47
2022-11-14T14:50:16.701Z,6.60
2022-11-14T14:52:43.202Z,6.22
2022-11-14T14:55:24.240Z,6.50
2022-11-14T14:57:50.814Z,6.82
2022-11-14T15:00:20.609Z,6.15
2022-11-14T15:02:47.796Z,6.50
2022-11-14T15:05:25.867Z,6.20
2022-11-14T15:07:57.116Z,6.55
2022-11-14T15:10:31.921Z,6.93
2022-11-14T15:12:59.282Z,7.18
2022-11-14T15:15:27.368Z,6.72
2022-11-14T15:17:55.926Z,6.40
2022-11-14T15:20:28.129Z,6.13
2022-11-14T15:23:13.301Z,5.45
2022-11-14T15:25:40.144Z,6.07
2022-11-14T15:28:19.797Z,6.88
2022-11-14T15:31:00.589Z,6.90
2022-11-14T15:33:27.014Z,7.38
2022-11-14T15:36:19.814Z,6.95
2022-11-14T15:39:03.907Z,7.03
2022-11-14T15:41:36.076Z,7.22
2022-11-14T15:44:02.648Z,7.10
2022-11-14T15:46:36.009Z,7.43
2022-11-14T15:49:29.257Z,6.18
2022-11-14T15:52:00.126Z,6.65
2022-11-14T15:54:29.257Z,6.72
2022-11-14T15:56:59.050Z,7.10
2022-11-14T15:59:27.265Z,6.65
2022-11-14T16:01:59.224Z,6.80
2022-11-14T16:04:46.015Z,7.00
2022-11-14T16:07:16.749Z,6.72
2022-11-14T16:09:43.323Z,7.13
2022-11-14T16:12:09.889Z,6.88
2022-11-14T16:14:36.565Z,6.45
2022-11-14T16:17:03.728Z,6.82
2022-11-14T16:19:30.294Z,6.20
2022-11-14T16:22:03.218Z,7.10
2022-11-14T16:24:34.001Z,6.55
2022-11-14T16:27:01.096Z,7.60
2022-11-14T16:29:27.762Z,9.57
2022-11-14T16:31:57.461Z,13.25
2022-11-14T16:34:26.161Z,7.22
2022-11-14T16:37:00.764Z,10.18
2022-11-14T16:39:27.888Z,8.13
2022-11-14T16:42:00.546Z,9.63
2022-11-14T16:44:27.384Z,7.18
2022-11-14T16:46:54.034Z,6.25
2022-11-14T16:49:20.873Z,7.35
2022-11-14T16:51:50.169Z,6.63
2022-11-14T16:54:19.529Z,6.63
2022-11-14T16:56:47.417Z,6.97
2022-11-14T16:59:14.116Z,7.68
2022-11-14T17:01:40.850Z,7.03
2022-11-14T17:04:07.632Z,6.97
2022-11-14T17:06:34.347Z,6.57
2022-11-14T17:09:01.267Z,6.97
2022-11-14T17:11:28.568Z,7.10
2022-11-14T17:13:55.926Z,6.72
2022-11-14T17:16:22.609Z,6.20
2022-11-14T17:18:56.045Z,7.35
2022-11-14T17:21:23.781Z,4.90
2022-11-14T17:23:57.742Z,8.02
2022-11-14T17:26:24.352Z,7.15
2022-11-14T17:28:50.962Z,6.88
2022-11-14T17:31:17.953Z,6.30
2022-11-14T17:33:50.306Z,5.95
2022-11-14T17:36:17.425Z,7.30
2022-11-14T17:38:44.695Z,6.88
2022-11-14T17:41:11.193Z,7.32
2022-11-14T17:43:39.923Z,6.50
2022-11-14T17:46:12.692Z,7.15
2022-11-14T17:48:42.617Z,6.57
2022-11-14T17:51:12.443Z,7.30
2022-11-14T17:53:39.844Z,7.20
2022-11-14T17:56:07.908Z,7.28
2022-11-14T17:58:35.087Z,7.05
2022-11-14T18:01:08.250Z,7.03
2022-11-14T18:03:35.730Z,7.78
2022-11-14T18:06:28.676Z,7.68
2022-11-14T18:08:55.674Z,8.07
2022-11-14T18:11:22.239Z,6.90
2022-11-14T18:13:48.741Z,8.25
2022-11-14T18:16:19.326Z,5.75
2022-11-14T18:18:46.169Z,6.20
2022-11-14T18:21:16.204Z,6.72
2022-11-14T18:23:43.383Z,6.32
2022-11-14T18:26:15.569Z,6.93
2022-11-14T18:28:42.814Z,6.85
2022-11-14T18:31:11.224Z,6.75
2022-11-14T18:33:39.674Z,7.57
2022-11-14T18:36:10.529Z,7.03
2022-11-14T18:38:37.466Z,7.75
2022-11-14T18:41:12.730Z,8.20
2022-11-14T18:43:39.266Z,6.93
2022-11-14T18:46:10.023Z,7.25
2022-11-14T18:48:38.232Z,6.00
2022-11-14T18:51:07.582Z,6.10
2022-11-14T18:53:35.728Z,6.47
2022-11-14T18:56:07.354Z,5.93
2022-11-14T18:58:35.946Z,5.78
2022-11-14T19:01:14.105Z,5.60
2022-11-14T19:03:40.963Z,5.25
2022-11-14T19:06:10.343Z,5.55
2022-11-14T19:08:37.157Z,5.55
2022-11-14T19:11:05.223Z,5.45
2022-11-14T19:13:32.071Z,5.45
2022-11-14T19:16:03.881Z,4.57
2022-11-14T19:18:31.413Z,5.10
2022-11-14T19:21:03.137Z,4.45
2022-11-14T19:23:30.116Z,5.18
2022-11-14T19:26:00.860Z,4.63
2022-11-14T19:28:30.985Z,5.13
2022-11-14T19:31:08.163Z,4.90
2022-11-14T19:33:35.319Z,4.90
2022-11-14T19:36:06.728Z,4.15
2022-11-14T19:38:33.825Z,4.70
2022-11-14T19:41:20.301Z,4.68
2022-11-14T19:43:47.474Z,4.97
2022-11-14T19:46:17.116Z,6.35
2022-11-14T19:48:44.175Z,7.55
2022-11-14T19:51:13.006Z,6.80
2022-11-14T19:53:40.877Z,6.93
2022-11-14T19:56:11.793Z,5.90
2022-11-14T19:58:39.615Z,4.82
2022-11-14T20:01:08.383Z,4.88
2022-11-14T20:03:35.314Z,5.57
2022-11-14T20:06:02.427Z,4.78
2022-11-14T20:08:29.245Z,5.03
2022-11-14T20:11:00.411Z,5.82
2022-11-14T20:13:40.249Z,4.50
2022-11-14T20:16:13.605Z,4.63
2022-11-14T20:18:43.141Z,5.05
2022-11-14T20:21:13.246Z,4.97
2022-11-14T20:23:40.048Z,5.05
2022-11-14T20:26:11.212Z,5.03
2022-11-14T20:28:39.215Z,5.72
2022-11-14T20:31:08.143Z,5.18
2022-11-14T20:33:40.189Z,5.70
2022-11-14T20:36:10.429Z,5.10
2022-11-14T20:38:36.973Z,5.20
2022-11-14T20:41:03.800Z,5.68
2022-11-14T20:43:31.070Z,5.28
2022-11-14T20:46:03.722Z,5.57
2022-11-14T20:48:32.368Z,5.22
2022-11-14T20:51:03.494Z,6.07
2022-11-14T20:53:31.275Z,6.57
2022-11-14T20:55:59.010Z,5.80
2022-11-14T20:58:26.954Z,5.20
2022-11-14T21:00:54.367Z,5.22
2022-11-14T21:03:22.627Z,5.05
2022-11-14T21:05:49.487Z,6.03
2022-11-14T21:08:19.398Z,6.00
2022-11-14T21:10:48.749Z,4.93
2022-11-14T21:13:44.714Z,5.63
2022-11-14T21:16:16.996Z,4.97
2022-11-14T21:18:47.899Z,5.72
2022-11-14T21:21:17.740Z,5.63
2022-11-14T21:23:46.538Z,5.53
2022-11-14T21:26:32.773Z,4.88
2022-11-14T21:29:01.774Z,5.63
2022-11-14T21:31:36.050Z,5.25
2022-11-14T21:34:09.679Z,5.43
2022-11-14T21:36:45.374Z,4.90
2022-11-14T21:39:15.009Z,5.20
2022-11-14T21:41:42.291Z,5.65
2022-11-14T21:44:11.443Z,5.65
2022-11-14T21:46:37.880Z,4.93
2022-11-14T21:49:04.368Z,5.43
2022-11-14T21:51:30.799Z,5.97
2022-11-14T21:54:06.222Z,5.57
2022-11-14T21:56:37.142Z,5.20
2022-11-14T21:59:15.332Z,5.03
2022-11-14T22:02:06.094Z,4.82
2022-11-14T22:04:33.508Z,5.25
2022-11-14T22:07:03.541Z,4.53
2022-11-14T22:09:30.918Z,5.78
2022-11-14T22:11:58.177Z,4.68
2022-11-14T22:14:24.908Z,4.85
2022-11-14T22:16:51.584Z,5.28
2022-11-14T22:19:18.983Z,5.18
2022-11-14T22:21:45.832Z,4.93
2022-11-14T22:24:12.424Z,4.63
2022-11-14T22:26:40.102Z,5.00
2022-11-14T22:29:07.540Z,4.38
2022-11-14T22:31:34.644Z,5.22
2022-11-14T22:34:01.656Z,5.35
2022-11-14T22:36:28.745Z,5.00
2022-11-14T22:38:56.951Z,4.75
2022-11-14T22:41:32.313Z,4.72
2022-11-14T22:43:59.713Z,4.72
2022-11-14T22:46:27.477Z,4.50
2022-11-14T22:48:54.560Z,4.82
2022-11-14T22:51:23.827Z,4.55
2022-11-14T22:53:52.857Z,4.22
2022-11-14T22:56:21.595Z,5.00
2022-11-14T22:58:48.625Z,4.88
2022-11-14T23:01:21.100Z,4.60
2022-11-14T23:03:48.601Z,4.07
2022-11-14T23:06:17.067Z,4.70
2022-11-14T23:08:44.179Z,4.47
2022-11-14T23:11:13.867Z,4.82
2022-11-14T23:13:45.942Z,4.50
2022-11-14T23:16:15.022Z,3.95
2022-11-14T23:18:41.759Z,4.57
2022-11-14T23:21:11.203Z,4.53
2022-11-14T23:23:37.822Z,3.83
2022-11-14T23:26:10.892Z,4.60
2022-11-14T23:28:38.087Z,4.15
2022-11-14T23:31:04.925Z,4.72
2022-11-14T23:33:32.137Z,4.30
2022-11-14T23:35:58.848Z,4.03
2022-11-14T23:38:25.481Z,4.22
2022-11-14T23:41:00.421Z,4.38
2022-11-14T23:43:27.795Z,4.40
2022-11-14T23:45:54.592Z,4.28
2022-11-14T23:48:22.587Z,4.10
2022-11-14T23:50:54.461Z,4.65
2022-11-14T23:53:21.661Z,4.40
2022-11-14T23:55:55.434Z,4.43
2022-11-14T23:58:23.134Z,4.32
